Time;durP1;ratioP1;P1;durP2;ratioP2;P2;SDS_P1;SDS_P2;PMS_P1;PMS_P2;Temp;Humidity;BMP_temperature;BMP_pressure;BME280_temperature;BME280_humidity;BME280_pressure;Samples;Min_cycle;Max_cycle;Signal;HPM_P1;HPM_P2
2022/10/08 00:00:47;;;;;;;21.47;15.70;;;;;;;11.67;100.00;96529.47;5081401;28;20855;-76
2022/10/08 00:03:14;;;;;;;23.67;16.20;;;;;;;11.73;100.00;96534.94;5060064;28;20016;-76
2022/10/08 00:05:40;;;;;;;24.70;16.37;;;;;;;11.73;100.00;96531.47;5077473;28;20070;-76
2022/10/08 00:08:07;;;;;;;22.50;14.77;;;;;;;11.70;100.00;96540.56;5080864;28;20056;-76
2022/10/08 00:10:34;;;;;;;22.13;15.80;;;;;;;11.66;100.00;96533.94;5080161;28;20039;-76
2022/10/08 00:13:00;;;;;;;19.73;15.80;;;;;;;11.67;100.00;96532.09;5075784;28;20082;-76
2022/10/08 00:15:26;;;;;;;21.10;14.50;;;;;;;11.66;100.00;96525.19;5062731;28;20067;-76
2022/10/08 00:17:52;;;;;;;17.93;14.87;;;;;;;11.63;100.00;96531.59;5076710;28;20043;-76
2022/10/08 00:20:18;;;;;;;19.80;13.67;;;;;;;11.62;100.00;96531.78;5060134;28;20025;-76
2022/10/08 00:22:44;;;;;;;18.97;13.67;;;;;;;11.62;100.00;96535.22;5064191;28;20705;-76
2022/10/08 00:25:09;;;;;;;18.87;13.90;;;;;;;11.59;100.00;96529.44;5081943;28;20032;-76
2022/10/08 00:27:36;;;;;;;19.80;13.33;;;;;;;11.51;100.00;96525.00;5080415;28;20028;-75
2022/10/08 00:30:03;;;;;;;17.53;13.23;;;;;;;11.50;100.00;96529.44;5070490;28;20486;-76
2022/10/08 00:32:28;;;;;;;18.40;14.23;;;;;;;11.53;100.00;96528.28;5060997;28;20074;-76
2022/10/08 00:34:54;;;;;;;16.67;13.13;;;;;;;11.59;100.00;96529.44;5080684;28;20153;-76
2022/10/08 00:37:20;;;;;;;20.17;13.20;;;;;;;11.46;100.00;96527.25;5069432;28;20024;-76
2022/10/08 00:39:45;;;;;;;19.00;12.40;;;;;;;11.42;100.00;96532.00;5047146;28;20019;-76
2022/10/08 00:42:12;;;;;;;18.07;13.43;;;;;;;11.41;100.00;96538.25;5047730;28;20040;-76
2022/10/08 00:44:50;;;;;;;16.43;12.33;;;;;;;11.42;100.00;96534.66;5066757;28;20063;-76
2022/10/08 00:47:22;;;;;;;20.23;12.40;;;;;;;11.35;100.00;96528.34;5065929;28;20096;-76
2022/10/08 00:49:50;;;;;;;16.23;12.27;;;;;;;11.31;100.00;96534.94;5067562;28;20081;-76
2022/10/08 00:52:17;;;;;;;17.23;12.97;;;;;;;11.31;100.00;96532.28;5052150;28;20033;-76
2022/10/08 00:54:45;;;;;;;15.53;12.10;;;;;;;11.30;100.00;96522.72;5066792;28;20701;-75
2022/10/08 00:57:11;;;;;;;14.90;11.97;;;;;;;11.31;100.00;96532.28;5066126;28;20037;-76
2022/10/08 00:59:37;;;;;;;19.77;12.97;;;;;;;11.34;100.00;96524.09;5062086;28;20074;-77
2022/10/08 01:02:07;;;;;;;17.30;13.47;;;;;;;11.33;100.00;96522.41;5064361;28;20050;-77
2022/10/08 01:04:34;;;;;;;18.10;13.83;;;;;;;11.32;100.00;96516.31;5044144;28;20051;-78
2022/10/08 01:07:20;;;;;;;19.10;13.40;;;;;;;11.35;100.00;96520.47;5049110;28;20020;-77
2022/10/08 01:10:08;;;;;;;19.33;13.23;;;;;;;11.37;100.00;96520.28;5048041;28;20047;-77
2022/10/08 01:13:07;;;;;;;18.27;12.60;;;;;;;11.40;100.00;96518.19;5046260;28;20028;-77
2022/10/08 01:15:43;;;;;;;18.43;13.67;;;;;;;11.46;100.00;96514.91;5066707;28;20107;-77
2022/10/08 01:18:36;;;;;;;21.17;14.70;;;;;;;11.53;100.00;96513.28;5061669;28;20035;-77
2022/10/08 01:21:10;;;;;;;21.02;14.73;;;;;;;11.56;100.00;96515.59;5064250;28;20041;-78
2022/10/08 01:23:59;;;;;;;18.47;13.93;;;;;;;11.64;100.00;96514.84;5068130;28;20052;-78
2022/10/08 01:27:01;;;;;;;17.00;13.80;;;;;;;11.75;100.00;96511.09;5058088;28;20028;-78
2022/10/08 01:29:41;;;;;;;21.20;13.03;;;;;;;11.86;100.00;96523.16;5065325;28;20780;-78
2022/10/08 01:32:13;;;;;;;20.77;13.57;;;;;;;12.05;100.00;96514.16;5066680;28;20040;-78
2022/10/08 01:35:01;;;;;;;28.83;14.10;;;;;;;12.08;100.00;96511.22;5052817;28;20032;-78
2022/10/08 01:37:36;;;;;;;23.87;13.80;;;;;;;12.21;100.00;96507.09;5042995;28;20029;-77
2022/10/08 01:40:06;;;;;;;18.60;13.67;;;;;;;12.26;100.00;96520.63;5063710;28;20185;-77
2022/10/08 01:42:35;;;;;;;19.20;13.70;;;;;;;12.29;100.00;96511.56;5059701;28;20036;-77
2022/10/08 01:45:04;;;;;;;19.20;13.37;;;;;;;12.30;100.00;96507.94;5046156;28;20686;-78
2022/10/08 01:47:35;;;;;;;22.10;14.30;;;;;;;12.35;100.00;96508.28;5065340;28;20036;-77
2022/10/08 01:50:14;;;;;;;19.83;14.03;;;;;;;12.35;100.00;96500.38;5047200;28;20127;-78
2022/10/08 01:52:46;;;;;;;20.40;12.83;;;;;;;12.37;100.00;96508.91;5062349;28;20050;-77
2022/10/08 01:55:30;;;;;;;20.90;14.30;;;;;;;12.35;100.00;96505.66;5066537;28;20036;-78
2022/10/08 01:58:01;;;;;;;18.52;14.35;;;;;;;12.35;100.00;96510.91;5048627;28;20414;-78
2022/10/08 02:00:28;;;;;;;22.37;14.30;;;;;;;12.32;100.00;96498.06;5051037;28;20131;-78
2022/10/08 02:02:54;;;;;;;18.07;13.70;;;;;;;12.25;100.00;96492.59;5043082;28;20024;-78
2022/10/08 02:05:22;;;;;;;19.70;14.70;;;;;;;12.23;100.00;96493.75;5069339;28;20025;-77
2022/10/08 02:07:49;;;;;;;19.97;13.33;;;;;;;12.19;100.00;96497.72;5060723;28;20086;-78
2022/10/08 02:10:17;;;;;;;22.53;15.00;;;;;;;12.18;100.00;96501.34;5065469;28;20037;-78
2022/10/08 02:12:43;;;;;;;17.27;13.63;;;;;;;12.15;100.00;96496.38;5067325;28;20025;-77
2022/10/08 02:15:18;;;;;;;22.93;14.83;;;;;;;12.15;100.00;96505.13;5067312;28;20517;-78
2022/10/08 02:18:17;;;;;;;19.80;14.03;;;;;;;12.22;100.00;96507.94;5050474;28;20394;-77
2022/10/08 02:21:07;;;;;;;20.60;14.40;;;;;;;12.22;100.00;96497.38;5060674;28;20063;-78
2022/10/08 02:23:42;;;;;;;20.80;13.90;;;;;;;12.23;100.00;96506.94;5062389;28;20036;-78
2022/10/08 02:26:12;;;;;;;23.73;13.97;;;;;;;12.25;100.00;96491.78;5050902;28;20115;-77
2022/10/08 02:28:58;;;;;;;19.73;14.83;;;;;;;12.26;100.00;96498.69;5066913;28;20036;-78
2022/10/08 02:31:36;;;;;;;19.17;14.20;;;;;;;12.30;100.00;96505.28;5067483;28;20032;-77
2022/10/08 02:34:19;;;;;;;18.63;14.87;;;;;;;12.21;100.00;96503.66;5059818;28;20108;-77
2022/10/08 02:36:52;;;;;;;18.20;14.00;;;;;;;12.13;100.00;96501.00;5067677;28;20074;-78
2022/10/08 02:39:20;;;;;;;18.88;13.60;;;;;;;12.04;100.00;96508.06;5075584;28;20029;-77
2022/10/08 02:41:49;;;;;;;20.47;15.87;;;;;;;12.04;100.00;96505.44;5074259;28;20055;-77
2022/10/08 02:44:21;;;;;;;20.83;14.33;;;;;;;11.98;100.00;96501.63;5055425;28;20036;-78
2022/10/08 02:46:51;;;;;;;18.27;13.40;;;;;;;11.99;100.00;96507.72;5068959;28;20079;-77
2022/10/08 02:49:23;;;;;;;22.03;14.10;;;;;;;12.02;100.00;96508.22;5066915;28;20595;-78
2022/10/08 02:51:52;;;;;;;22.45;15.27;;;;;;;11.99;100.00;96502.44;5064334;28;20028;-77
2022/10/08 02:54:20;;;;;;;19.57;15.77;;;;;;;11.96;100.00;96500.94;5049846;28;20035;-77
2022/10/08 02:57:00;;;;;;;20.67;16.40;;;;;;;11.94;100.00;96505.56;5049125;28;20376;-77
2022/10/08 02:59:26;;;;;;;19.70;14.63;;;;;;;11.96;100.00;96515.94;5067081;28;20079;-77
2022/10/08 03:02:01;;;;;;;20.57;14.83;;;;;;;11.98;100.00;96509.53;5067953;28;20713;-77
2022/10/08 03:04:42;;;;;;;20.60;14.90;;;;;;;11.98;100.00;96512.16;5061142;28;20036;-78
2022/10/08 03:07:09;;;;;;;22.33;16.13;;;;;;;11.98;100.00;96513.97;5040384;28;20551;-77
2022/10/08 03:09:44;;;;;;;19.27;15.53;;;;;;;12.00;100.00;96509.34;5058876;28;20055;-77
2022/10/08 03:12:10;;;;;;;22.43;15.87;;;;;;;12.02;100.00;96507.41;5072332;28;20059;-77
2022/10/08 03:14:47;;;;;;;20.03;16.03;;;;;;;12.07;100.00;96509.53;5044657;28;20032;-77
2022/10/08 03:17:18;;;;;;;21.93;16.43;;;;;;;12.08;100.00;96506.75;5046887;28;20094;-77
2022/10/08 03:19:43;;;;;;;22.57;17.10;;;;;;;12.10;100.00;96507.41;5048129;28;20119;-78
2022/10/08 03:22:09;;;;;;;29.10;17.17;;;;;;;12.13;100.00;96504.44;5064807;28;20177;-78
2022/10/08 03:24:36;;;;;;;21.87;17.60;;;;;;;12.09;100.00;96508.41;5064653;28;20044;-78
2022/10/08 03:27:03;;;;;;;23.67;17.63;;;;;;;12.10;100.00;96501.31;5044221;28;20122;-78
2022/10/08 03:29:29;;;;;;;27.17;18.97;;;;;;;12.12;100.00;96507.25;5040987;28;20025;-77
2022/10/08 03:31:54;;;;;;;23.10;17.17;;;;;;;12.10;100.00;96504.75;5060196;28;21080;-77
2022/10/08 03:34:20;;;;;;;26.13;17.43;;;;;;;12.09;100.00;96508.41;5058380;28;20546;-77
2022/10/08 03:36:46;;;;;;;22.20;17.77;;;;;;;12.09;100.00;96507.56;5064352;28;20020;-77
2022/10/08 03:39:12;;;;;;;21.57;17.27;;;;;;;12.10;100.00;96519.75;5051441;28;20021;-78
2022/10/08 03:41:37;;;;;;;22.10;17.00;;;;;;;12.09;100.00;96518.13;5063262;28;20028;-77
2022/10/08 03:44:07;;;;;;;21.53;17.80;;;;;;;12.12;100.00;96523.06;5047909;28;20582;-77
2022/10/08 03:46:33;;;;;;;21.77;16.97;;;;;;;12.13;100.00;96524.72;5055712;28;20028;-78
2022/10/08 03:48:59;;;;;;;26.20;18.67;;;;;;;12.15;100.00;96526.22;5041225;28;20036;-77
2022/10/08 03:51:25;;;;;;;25.27;18.23;;;;;;;12.14;100.00;96527.22;5064247;28;20028;-77
2022/10/08 03:53:50;;;;;;;23.47;17.40;;;;;;;12.15;100.00;96528.84;5065010;28;20033;-77
2022/10/08 03:56:19;;;;;;;27.90;18.17;;;;;;;12.16;100.00;96534.94;5065217;28;20700;-78
2022/10/08 03:58:46;;;;;;;22.33;17.77;;;;;;;12.21;100.00;96532.66;5063603;28;20078;-77
2022/10/08 04:01:14;;;;;;;24.03;18.00;;;;;;;12.20;100.00;96542.34;5064162;28;20569;-77
2022/10/08 04:03:41;;;;;;;24.87;16.63;;;;;;;12.23;100.00;96535.94;5064288;28;20036;-78
2022/10/08 04:06:06;;;;;;;22.53;17.13;;;;;;;12.23;100.00;96541.22;5065136;28;20029;-77
2022/10/08 04:08:33;;;;;;;20.53;17.37;;;;;;;12.23;100.00;96536.75;5060356;28;20532;-77
2022/10/08 04:11:06;;;;;;;24.73;17.93;;;;;;;12.22;100.00;96534.31;5065635;28;20641;-77
2022/10/08 04:13:32;;;;;;;21.08;17.85;;;;;;;12.20;100.00;96531.81;5065856;28;20052;-77
2022/10/08 04:16:00;;;;;;;22.50;16.70;;;;;;;12.18;100.00;96533.81;5051190;28;20039;-77
2022/10/08 04:18:26;;;;;;;24.60;18.53;;;;;;;12.18;100.00;96535.63;5066761;28;20055;-78
2022/10/08 04:20:57;;;;;;;24.53;19.17;;;;;;;12.16;100.00;96540.22;5069345;28;20518;-77
2022/10/08 04:23:22;;;;;;;27.60;18.47;;;;;;;12.19;100.00;96530.16;5068296;28;20032;-78
2022/10/08 04:25:50;;;;;;;23.93;18.70;;;;;;;12.21;100.00;96536.13;5061295;28;20440;-78
2022/10/08 04:28:16;;;;;;;25.23;18.90;;;;;;;12.25;100.00;96539.25;5063593;28;20048;-78
2022/10/08 04:30:42;;;;;;;25.53;18.70;;;;;;;12.25;100.00;96540.06;5066935;28;20457;-77
2022/10/08 04:33:07;;;;;;;25.33;18.87;;;;;;;12.25;100.00;96534.78;5067880;28;20040;-77
2022/10/08 04:35:37;;;;;;;24.97;19.10;;;;;;;12.28;100.00;96538.94;5066575;28;20036;-78
2022/10/08 04:38:02;;;;;;;21.27;17.17;;;;;;;12.32;100.00;96540.25;5062955;28;20078;-77
2022/10/08 04:40:28;;;;;;;29.37;18.47;;;;;;;12.33;100.00;96536.63;5067705;28;20032;-79
2022/10/08 04:42:54;;;;;;;28.20;19.63;;;;;;;12.31;100.00;96543.88;5070757;28;20086;-77
2022/10/08 04:45:19;;;;;;;24.20;19.10;;;;;;;12.32;100.00;96542.88;5050433;28;20135;-77
2022/10/08 04:47:45;;;;;;;24.87;18.70;;;;;;;12.32;100.00;96539.44;5047874;28;20048;-78
2022/10/08 04:50:11;;;;;;;23.60;18.17;;;;;;;12.30;100.00;96544.84;5062293;28;20036;-77
2022/10/08 04:52:36;;;;;;;28.30;21.87;;;;;;;12.30;100.00;96552.75;5056814;28;20071;-77
2022/10/08 04:55:02;;;;;;;32.23;21.67;;;;;;;12.30;100.00;96550.13;5059678;28;20103;-78
2022/10/08 04:57:27;;;;;;;22.70;19.37;;;;;;;12.31;100.00;96549.16;5068047;28;20086;-78
2022/10/08 04:59:53;;;;;;;25.73;18.83;;;;;;;12.29;100.00;96548.47;5066868;28;20040;-77
2022/10/08 05:02:19;;;;;;;23.73;18.30;;;;;;;12.32;100.00;96545.53;5050178;28;20025;-77
2022/10/08 05:04:44;;;;;;;25.70;18.73;;;;;;;12.27;100.00;96547.81;5047677;28;20033;-78
2022/10/08 05:07:10;;;;;;;22.63;18.17;;;;;;;12.22;100.00;96550.13;5067725;28;20060;-78
2022/10/08 05:09:35;;;;;;;23.47;18.93;;;;;;;12.20;100.00;96557.34;5068640;28;20110;-77
2022/10/08 05:12:01;;;;;;;23.77;18.00;;;;;;;12.15;100.00;96559.66;5067487;28;20064;-78
2022/10/08 05:14:27;;;;;;;27.60;18.17;;;;;;;12.14;100.00;96550.09;5047486;28;20503;-77
2022/10/08 05:16:52;;;;;;;21.80;17.43;;;;;;;12.09;100.00;96563.75;5048449;28;20063;-78
2022/10/08 05:19:18;;;;;;;21.47;18.60;;;;;;;11.99;100.00;96561.25;5070146;28;20116;-77
2022/10/08 05:21:44;;;;;;;19.37;15.70;;;;;;;12.01;100.00;96564.56;5050695;28;20020;-78
2022/10/08 05:24:10;;;;;;;21.43;16.80;;;;;;;11.99;100.00;96558.63;5060340;28;20078;-77
2022/10/08 05:26:38;;;;;;;26.30;18.13;;;;;;;12.00;100.00;96562.94;5062213;28;20028;-77
2022/10/08 05:29:04;;;;;;;22.53;18.17;;;;;;;11.97;100.00;96571.16;5051469;28;20066;-77
2022/10/08 05:31:31;;;;;;;27.30;19.00;;;;;;;11.94;100.00;96568.84;5065772;28;20040;-77
2022/10/08 05:33:58;;;;;;;23.00;17.83;;;;;;;12.00;100.00;96572.63;5063664;28;20359;-77
2022/10/08 05:36:26;;;;;;;23.03;18.07;;;;;;;12.06;100.00;96579.06;5053518;28;20025;-77
2022/10/08 05:38:52;;;;;;;20.20;17.33;;;;;;;12.05;100.00;96580.06;5046696;28;20576;-77
2022/10/08 05:41:21;;;;;;;22.23;17.63;;;;;;;12.08;100.00;96585.03;5062674;28;20104;-77
2022/10/08 05:43:47;;;;;;;22.43;18.70;;;;;;;12.09;100.00;96576.13;5064815;28;20037;-77
2022/10/08 05:46:14;;;;;;;26.90;18.63;;;;;;;12.07;100.00;96584.16;5066777;28;20093;-80
2022/10/08 05:48:41;;;;;;;27.63;18.87;;;;;;;12.07;100.00;96575.44;5046280;28;20037;-77
2022/10/08 05:51:15;;;;;;;25.27;20.10;;;;;;;12.10;100.00;96578.56;5060707;28;20149;-77
2022/10/08 05:53:45;;;;;;;33.03;21.63;;;;;;;12.05;100.00;96586.16;5063470;28;20398;-77
2022/10/08 05:56:13;;;;;;;33.03;20.00;;;;;;;12.05;100.00;96591.44;5060773;28;20033;-77
2022/10/08 05:58:40;;;;;;;25.70;20.03;;;;;;;12.07;100.00;96593.88;5065879;28;20028;-78
2022/10/08 06:01:11;;;;;;;28.37;21.87;;;;;;;12.06;100.00;96593.06;5066663;28;20037;-78
2022/10/08 06:03:37;;;;;;;30.53;21.53;;;;;;;12.05;100.00;96595.88;5046930;28;20558;-78
2022/10/08 06:06:05;;;;;;;25.33;19.70;;;;;;;12.08;100.00;96587.66;5050993;28;20048;-77
2022/10/08 06:08:32;;;;;;;26.80;19.80;;;;;;;12.13;100.00;96599.34;5066762;28;20444;-78
2022/10/08 06:10:58;;;;;;;26.43;19.17;;;;;;;12.20;100.00;96607.44;5063030;28;20112;-78
2022/10/08 06:13:25;;;;;;;23.27;18.80;;;;;;;12.24;100.00;96612.25;5064376;28;20091;-78
2022/10/08 06:16:10;;;;;;;26.07;20.33;;;;;;;12.29;100.00;96608.31;5067248;28;20036;-78
2022/10/08 06:18:40;;;;;;;23.50;19.10;;;;;;;12.30;100.00;96613.41;5066827;28;20028;-77
2022/10/08 06:21:17;;;;;;;25.63;18.87;;;;;;;12.31;100.00;96616.88;5066664;28;20399;-77
2022/10/08 06:24:07;;;;;;;24.30;17.87;;;;;;;12.39;100.00;96624.81;5063877;28;20466;-78
2022/10/08 06:26:36;;;;;;;36.27;25.33;;;;;;;12.42;100.00;96630.59;5065820;28;20051;-78
2022/10/08 06:29:07;;;;;;;27.30;22.27;;;;;;;12.49;100.00;96630.78;5064249;28;20028;-77
2022/10/08 06:31:36;;;;;;;27.97;18.50;;;;;;;12.47;100.00;96636.22;5063839;28;20106;-77
2022/10/08 06:34:03;;;;;;;27.63;17.13;;;;;;;12.45;100.00;96632.09;5066111;28;20411;-78
2022/10/08 06:36:29;;;;;;;23.27;17.27;;;;;;;12.47;100.00;96641.50;5059992;28;20135;-77
2022/10/08 06:39:06;;;;;;;20.47;16.67;;;;;;;12.54;100.00;96633.78;5065290;28;20050;-77
2022/10/08 06:41:33;;;;;;;25.27;17.80;;;;;;;12.54;100.00;96639.06;5050709;28;20033;-77
2022/10/08 06:44:00;;;;;;;27.70;16.93;;;;;;;12.49;100.00;96642.16;5065838;28;20032;-77
2022/10/08 06:46:26;;;;;;;22.37;17.00;;;;;;;12.55;100.00;96645.16;5049397;28;20257;-77
2022/10/08 06:48:52;;;;;;;20.73;15.77;;;;;;;12.59;100.00;96652.56;5063223;28;20810;-77
2022/10/08 06:51:18;;;;;;;24.67;17.43;;;;;;;12.64;100.00;96649.44;5064699;28;20036;-77
2022/10/08 06:53:50;;;;;;;47.60;36.87;;;;;;;12.60;100.00;96648.13;5048877;28;20040;-78
2022/10/08 06:56:17;;;;;;;24.60;16.03;;;;;;;12.67;100.00;96644.66;5067659;28;20025;-78
2022/10/08 06:58:43;;;;;;;22.73;16.53;;;;;;;12.74;100.00;96653.59;5046613;28;20174;-77
2022/10/08 07:01:09;;;;;;;26.27;16.03;;;;;;;12.83;100.00;96654.41;5047414;28;20874;-77
2022/10/08 07:03:35;;;;;;;21.93;15.57;;;;;;;12.77;100.00;96648.97;5065044;28;20029;-78
2022/10/08 07:06:03;;;;;;;23.67;15.33;;;;;;;12.88;100.00;96656.59;5055268;28;20044;-78
2022/10/08 07:08:30;;;;;;;24.77;16.03;;;;;;;12.91;100.00;96658.88;5064875;28;20028;-78
2022/10/08 07:11:03;;;;;;;25.67;16.63;;;;;;;12.92;100.00;96668.47;5065578;28;20105;-78
2022/10/08 07:13:29;;;;;;;22.00;15.90;;;;;;;12.93;100.00;96668.28;5044931;28;20078;-78
2022/10/08 07:16:16;;;;;;;21.27;16.10;;;;;;;12.89;100.00;96669.63;5064899;28;20033;-78
2022/10/08 07:18:42;;;;;;;21.63;15.43;;;;;;;12.84;100.00;96674.53;5055189;28;20512;-78
2022/10/08 07:21:11;;;;;;;23.33;16.90;;;;;;;12.93;100.00;96668.28;5048617;28;20503;-78
2022/10/08 07:23:37;;;;;;;23.83;16.97;;;;;;;12.90;100.00;96668.63;5048088;28;20032;-77
2022/10/08 07:26:06;;;;;;;20.87;15.80;;;;;;;13.05;100.00;96678.56;5057479;28;20035;-78
2022/10/08 07:28:34;;;;;;;21.23;15.90;;;;;;;13.21;100.00;96663.53;5046120;28;20044;-76
2022/10/08 07:31:14;;;;;;;23.80;15.57;;;;;;;13.45;100.00;96664.56;5048507;28;20017;-77
2022/10/08 07:33:40;;;;;;;19.10;15.20;;;;;;;13.57;100.00;96665.03;5053856;28;20151;-77
2022/10/08 07:36:21;;;;;;;21.80;15.65;;;;;;;13.77;100.00;96668.94;5064760;28;20119;-77
2022/10/08 07:38:47;;;;;;;24.50;15.43;;;;;;;14.01;100.00;96669.88;5038613;28;20036;-77
2022/10/08 07:41:13;;;;;;;17.10;13.43;;;;;;;13.99;100.00;96663.97;5064081;28;20037;-77
2022/10/08 07:43:42;;;;;;;23.70;14.15;;;;;;;14.20;100.00;96671.31;5062312;28;20039;-77
2022/10/08 07:46:10;;;;;;;19.10;12.60;;;;;;;13.86;100.00;96667.94;5065975;28;20039;-77
2022/10/08 07:48:37;;;;;;;22.52;13.80;;;;;;;13.94;100.00;96672.38;5039167;28;20029;-78
2022/10/08 07:51:20;;;;;;;22.98;12.93;;;;;;;13.85;100.00;96673.41;5063738;28;20038;-77
2022/10/08 07:53:47;;;;;;;21.42;13.07;;;;;;;13.73;100.00;96672.94;5068827;28;20032;-78
2022/10/08 07:56:14;;;;;;;16.73;12.25;;;;;;;14.08;100.00;96671.69;5062188;28;20027;-77
2022/10/08 07:58:40;;;;;;;19.40;13.07;;;;;;;14.34;100.00;96671.41;5051378;28;20120;-77
2022/10/08 08:01:09;;;;;;;22.42;11.63;;;;;;;14.48;100.00;96669.03;5069525;28;20092;-77
2022/10/08 08:03:35;;;;;;;19.05;11.63;;;;;;;14.10;100.00;96674.16;5063408;28;20037;-78
2022/10/08 08:06:04;;;;;;;18.35;12.55;;;;;;;14.09;100.00;96678.63;5069481;28;20108;-78
2022/10/08 08:08:30;;;;;;;19.33;11.15;;;;;;;14.02;100.00;96671.56;5048022;28;20032;-77
2022/10/08 08:11:00;;;;;;;18.38;11.32;;;;;;;14.02;100.00;96677.66;5048447;28;20144;-78
2022/10/08 08:13:28;;;;;;;16.95;11.50;;;;;;;14.07;100.00;96671.84;5047397;28;20033;-78
2022/10/08 08:16:02;;;;;;;16.52;10.55;;;;;;;14.21;100.00;96673.78;5067824;28;20036;-77
2022/10/08 08:18:30;;;;;;;12.85;9.82;;;;;;;14.50;100.00;96664.41;5063656;28;20493;-77
2022/10/08 08:21:00;;;;;;;19.27;9.88;;;;;;;15.24;100.00;96657.66;5068955;28;20039;-78
2022/10/08 08:23:34;;;;;;;14.30;9.85;;;;;;;15.07;100.00;96659.63;5069736;28;20029;-77
2022/10/08 08:26:03;;;;;;;16.35;8.88;;;;;;;15.20;100.00;96656.38;5069760;28;20036;-77
2022/10/08 08:28:29;;;;;;;15.07;9.15;;;;;;;15.43;100.00;96664.31;5067486;28;20119;-77
2022/10/08 08:31:15;;;;;;;16.85;8.57;;;;;;;16.19;100.00;96656.25;5061027;28;21141;-77
2022/10/08 08:33:41;;;;;;;18.58;8.10;;;;;;;15.58;100.00;96659.03;5050688;28;20166;-78
2022/10/08 08:36:08;;;;;;;12.10;7.35;;;;;;;15.85;100.00;96651.50;5074100;28;20033;-78
2022/10/08 08:38:35;;;;;;;13.02;7.18;;;;;;;15.92;100.00;96658.53;5053461;28;20028;-78
2022/10/08 08:41:32;;;;;;;13.77;7.35;;;;;;;15.94;100.00;96658.38;5065806;28;20490;-77
2022/10/08 08:44:27;;;;;;;14.45;7.43;;;;;;;16.95;100.00;96646.97;5068193;28;20579;-77
2022/10/08 08:47:13;;;;;;;12.02;6.47;;;;;;;16.85;100.00;96650.97;5062445;28;20540;-79
2022/10/08 08:49:44;;;;;;;13.23;6.40;;;;;;;16.20;100.00;96648.13;5062187;28;20041;-78
2022/10/08 08:52:16;;;;;;;12.00;6.00;;;;;;;17.33;100.00;96645.91;5045359;28;20087;-77
2022/10/08 08:54:48;;;;;;;9.60;6.32;;;;;;;18.02;100.00;96642.56;5065373;28;20032;-79
2022/10/08 08:57:22;;;;;;;12.85;5.85;;;;;;;17.51;100.00;96640.13;5049783;28;20028;-78
2022/10/08 08:59:52;;;;;;;8.88;5.68;;;;;;;16.98;100.00;96651.09;5050704;28;20028;-78
2022/10/08 09:02:56;;;;;;;13.75;6.15;;;;;;;17.73;100.00;96640.88;5067348;28;20040;-77
2022/10/08 09:05:24;;;;;;;9.55;5.03;;;;;;;16.84;100.00;96649.31;5052173;28;20113;-77
2022/10/08 09:08:10;;;;;;;10.77;4.90;;;;;;;17.73;100.00;96641.72;5068347;28;20062;-78
2022/10/08 09:10:44;;;;;;;15.50;6.15;;;;;;;18.28;100.00;96637.38;5048389;28;20046;-78
2022/10/08 09:13:18;;;;;;;12.90;5.35;;;;;;;18.17;100.00;96631.75;5067011;28;20398;-77
2022/10/08 09:15:45;;;;;;;9.73;4.97;;;;;;;18.45;100.00;96642.34;5067901;28;20406;-78
2022/10/08 09:18:13;;;;;;;10.27;4.20;;;;;;;18.18;100.00;96630.78;5052587;28;20397;-77
2022/10/08 09:20:39;;;;;;;9.95;4.10;;;;;;;18.49;100.00;96633.75;5068317;28;20070;-78
2022/10/08 09:23:15;;;;;;;9.05;3.75;;;;;;;18.95;100.00;96635.78;5053525;28;20078;-77
2022/10/08 09:25:43;;;;;;;15.07;5.28;;;;;;;18.96;100.00;96641.94;5062455;28;20399;-78
2022/10/08 09:28:08;;;;;;;14.32;5.38;;;;;;;18.13;100.00;96647.31;5066053;28;20020;-78
2022/10/08 09:30:43;;;;;;;16.20;8.23;;;;;;;17.24;100.00;96658.50;5063700;28;20550;-79
2022/10/08 09:33:30;;;;;;;15.15;5.20;;;;;;;16.87;100.00;96663.06;5061606;28;20045;-79
2022/10/08 09:35:57;;;;;;;11.18;4.78;;;;;;;16.59;100.00;96670.84;5061995;28;20123;-78
2022/10/08 09:38:25;;;;;;;11.10;4.10;;;;;;;16.55;100.00;96669.59;5067914;28;20032;-78
2022/10/08 09:41:06;;;;;;;7.68;3.35;;;;;;;16.27;100.00;96664.16;5050164;28;20052;-78
2022/10/08 09:43:33;;;;;;;10.80;3.58;;;;;;;16.62;100.00;96665.19;5045192;28;20060;-78
2022/10/08 09:46:03;;;;;;;13.43;3.67;;;;;;;16.50;100.00;96667.50;5045445;28;20672;-77
2022/10/08 09:48:29;;;;;;;9.65;3.72;;;;;;;16.67;100.00;96673.41;5049371;28;20437;-77
2022/10/08 09:51:05;;;;;;;10.90;3.90;;;;;;;16.43;100.00;96663.94;5066531;28;20111;-77
2022/10/08 09:53:41;;;;;;;9.88;3.35;;;;;;;16.65;100.00;96666.66;5065272;28;20486;-76
2022/10/08 09:56:08;;;;;;;8.95;4.43;;;;;;;16.42;100.00;96661.47;5061284;28;20062;-78
2022/10/08 09:58:46;;;;;;;15.27;7.78;;;;;;;16.15;100.00;96661.13;5046519;28;20068;-77
2022/10/08 10:01:14;;;;;;;14.20;7.07;;;;;;;15.98;100.00;96665.78;5054279;28;20040;-77
2022/10/08 10:04:05;;;;;;;11.35;4.07;;;;;;;16.37;100.00;96663.88;5035001;28;20439;-77
2022/10/08 10:06:32;;;;;;;9.52;3.30;;;;;;;16.66;100.00;96669.09;5035453;28;20123;-76
2022/10/08 10:09:00;;;;;;;10.27;3.42;;;;;;;17.13;100.00;96659.00;5031585;28;20088;-77
2022/10/08 10:11:32;;;;;;;10.23;3.90;;;;;;;17.05;100.00;96667.09;5041907;28;20036;-78
2022/10/08 10:14:04;;;;;;;10.95;4.65;;;;;;;17.20;100.00;96660.72;5059944;28;20031;-77
2022/10/08 10:16:41;;;;;;;7.03;3.70;;;;;;;17.30;100.00;96664.88;5066038;28;20028;-78
2022/10/08 10:19:21;;;;;;;13.27;3.40;;;;;;;16.77;100.00;96667.84;5064914;28;20036;-77
2022/10/08 10:21:51;;;;;;;9.77;3.58;;;;;;;16.34;100.00;96666.88;5047658;28;20037;-77
2022/10/08 10:24:26;;;;;;;8.48;2.80;;;;;;;16.66;100.00;96668.28;5053261;28;20043;-76
2022/10/08 10:26:54;;;;;;;11.40;2.90;;;;;;;16.84;100.00;96663.44;5039086;28;20060;-77
2022/10/08 10:29:26;;;;;;;8.63;3.45;;;;;;;17.98;100.00;96650.09;5015477;28;20032;-82
2022/10/08 10:31:58;;;;;;;7.20;2.78;;;;;;;18.96;100.00;96650.75;5061152;28;20036;-77
2022/10/08 10:34:29;;;;;;;13.27;7.00;;;;;;;19.20;100.00;96651.19;5062373;28;20055;-78
2022/10/08 10:36:58;;;;;;;12.05;3.28;;;;;;;19.61;100.00;96634.19;5072828;28;20057;-80
2022/10/08 10:39:26;;;;;;;8.32;2.83;;;;;;;18.94;100.00;96651.97;5063341;28;20114;-76
2022/10/08 10:42:17;;;;;;;8.48;2.20;;;;;;;18.31;100.00;96652.13;5069739;28;20032;-78
2022/10/08 10:44:59;;;;;;;8.77;3.45;;;;;;;17.60;100.00;96650.41;5062606;28;20028;-77
2022/10/08 10:47:29;;;;;;;8.80;3.47;;;;;;;17.18;100.00;96657.44;5062517;28;20132;-77
2022/10/08 10:49:55;;;;;;;10.10;3.70;;;;;;;17.07;100.00;96657.94;5063800;28;20561;-77
2022/10/08 10:52:58;;;;;;;9.38;2.90;;;;;;;16.87;100.00;96657.75;5059707;28;20120;-79
2022/10/08 10:55:37;;;;;;;11.40;2.60;;;;;;;16.52;100.00;96666.47;5048411;28;20297;-78
2022/10/08 10:58:31;;;;;;;9.45;2.20;;;;;;;16.46;100.00;96668.88;5060276;28;20043;-79
2022/10/08 11:01:22;;;;;;;9.82;4.55;;;;;;;16.75;100.00;96661.06;5065463;28;20782;-77
2022/10/08 11:04:13;;;;;;;8.93;2.50;;;;;;;16.56;100.00;96667.75;5065883;28;20028;-77
2022/10/08 11:07:16;;;;;;;6.32;2.50;;;;;;;16.56;100.00;96654.47;5049884;28;20024;-78
2022/10/08 11:09:49;;;;;;;8.20;2.97;;;;;;;16.46;100.00;96657.41;5049202;28;20040;-77
2022/10/08 11:12:24;;;;;;;9.75;2.65;;;;;;;17.01;100.00;96656.03;5036235;28;20040;-78
2022/10/08 11:15:05;;;;;;;10.20;2.70;;;;;;;17.28;100.00;96650.97;5022033;28;20040;-78
2022/10/08 11:17:50;;;;;;;4.85;2.30;;;;;;;17.51;100.00;96651.59;5019966;28;20055;-78
2022/10/08 11:20:38;;;;;;;7.97;2.60;;;;;;;17.29;100.00;96664.06;5029044;28;20024;-79
2022/10/08 11:23:03;;;;;;;6.85;2.00;;;;;;;17.17;100.00;96658.44;5042685;28;20035;-79
2022/10/08 11:25:32;;;;;;;9.13;2.28;;;;;;;17.34;100.00;96659.00;5048889;28;20040;-78
2022/10/08 11:28:23;;;;;;;11.77;2.88;;;;;;;17.40;100.00;96657.41;5065088;28;20112;-78
2022/10/08 11:31:03;;;;;;;7.00;2.08;;;;;;;17.68;100.00;96660.09;5061526;28;20674;-76